Time;durP1;ratioP1;P1;durP2;ratioP2;P2;SDS_P1;SDS_P2;PMS_P1;PMS_P2;Temp;Humidity;BMP_temperature;BMP_pressure;BME280_temperature;BME280_humidity;BME280_pressure;Samples;Min_cycle;Max_cycle;Signal;HPM_P1;HPM_P2
2022/10/03 00:02:07;;;;;;;12.18;2.00;;;11.20;99.90;;;;;;5022656;28;20049;-65
2022/10/03 00:05:01;;;;;;;8.75;2.13;;;11.20;99.90;;;;;;5007008;28;20042;-65
2022/10/03 00:07:45;;;;;;;11.95;2.30;;;11.20;99.90;;;;;;5011558;28;20041;-65
2022/10/03 00:10:21;;;;;;;10.10;1.77;;;11.20;99.90;;;;;;5032218;28;20405;-65
2022/10/03 00:12:59;;;;;;;10.02;2.35;;;11.10;99.90;;;;;;5011126;28;20050;-65
2022/10/03 00:15:36;;;;;;;11.80;2.15;;;11.10;99.90;;;;;;5009145;28;20037;-65
2022/10/03 00:18:40;;;;;;;11.77;2.88;;;11.00;99.90;;;;;;5029547;28;20053;-63
2022/10/03 00:21:08;;;;;;;6.72;1.90;;;11.00;99.90;;;;;;5007126;28;20049;-65
2022/10/03 00:23:40;;;;;;;10.48;1.90;;;11.00;99.90;;;;;;5027640;28;20068;-63
2022/10/03 00:26:26;;;;;;;9.00;1.75;;;11.00;99.90;;;;;;5020346;28;20041;-63
2022/10/03 00:29:10;;;;;;;7.95;1.77;;;11.00;99.90;;;;;;5043404;28;20037;-65
2022/10/03 00:31:54;;;;;;;11.38;1.92;;;11.00;99.90;;;;;;5048053;28;20401;-62
2022/10/03 00:34:29;;;;;;;11.38;2.47;;;11.00;99.90;;;;;;5046019;28;20057;-65
2022/10/03 00:37:19;;;;;;;10.02;2.30;;;11.00;99.90;;;;;;5049616;28;20033;-64
2022/10/03 00:39:57;;;;;;;9.93;1.90;;;11.00;99.90;;;;;;5049487;28;20041;-65
2022/10/03 00:42:53;;;;;;;7.22;1.60;;;10.90;99.90;;;;;;5050555;28;20048;-65
2022/10/03 00:45:37;;;;;;;7.50;1.80;;;10.90;99.90;;;;;;5051516;28;20112;-62
2022/10/03 00:48:35;;;;;;;12.18;2.40;;;10.90;99.90;;;;;;5051750;28;20041;-64
2022/10/03 00:51:34;;;;;;;5.03;1.58;;;10.90;99.90;;;;;;5041296;28;20045;-63
2022/10/03 00:54:21;;;;;;;6.18;1.67;;;10.80;99.90;;;;;;5051947;28;20408;-65
2022/10/03 00:57:07;;;;;;;6.03;2.10;;;10.70;99.90;;;;;;5050098;28;20102;-65
2022/10/03 00:59:42;;;;;;;8.00;1.48;;;10.70;99.90;;;;;;5048640;28;20044;-65
2022/10/03 01:02:31;;;;;;;5.95;1.50;;;10.70;99.90;;;;;;5048358;28;20422;-65
2022/10/03 01:04:57;;;;;;;10.45;2.00;;;10.70;99.90;;;;;;5045378;28;20033;-65
2022/10/03 01:07:37;;;;;;;9.10;2.03;;;10.70;99.90;;;;;;5049876;28;20519;-65
2022/10/03 01:10:17;;;;;;;7.97;1.92;;;10.70;99.90;;;;;;5044494;28;20041;-65
2022/10/03 01:12:56;;;;;;;7.47;1.98;;;10.70;99.90;;;;;;5055099;28;20041;-65
2022/10/03 01:16:02;;;;;;;7.53;1.58;;;10.70;99.90;;;;;;5047920;28;20033;-64
2022/10/03 01:18:53;;;;;;;4.18;1.13;;;10.70;99.90;;;;;;5020696;28;20048;-65
2022/10/03 01:21:49;;;;;;;5.32;1.40;;;10.70;99.90;;;;;;5049199;28;20037;-65
2022/10/03 01:24:24;;;;;;;8.15;1.80;;;10.60;99.90;;;;;;5048975;28;20037;-61
2022/10/03 01:27:05;;;;;;;8.07;1.67;;;10.60;99.90;;;;;;5034205;28;20041;-61
2022/10/03 01:30:21;;;;;;;6.63;2.08;;;10.60;99.90;;;;;;5025372;28;20037;-61
2022/10/03 01:33:01;;;;;;;8.10;2.10;;;10.90;99.90;;;;;;4966077;28;20047;-61
2022/10/03 01:35:39;;;;;;;10.15;2.20;;;10.60;99.90;;;;;;4985997;28;20050;-61
2022/10/03 01:38:32;;;;;;;11.70;1.83;;;10.60;99.90;;;;;;5000179;28;20124;-61
2022/10/03 01:41:02;;;;;;;10.93;2.00;;;10.60;99.90;;;;;;5022475;28;20037;-61
2022/10/03 01:43:41;;;;;;;10.05;1.92;;;10.70;99.90;;;;;;5029709;28;20460;-64
2022/10/03 01:46:18;;;;;;;9.18;2.15;;;10.60;99.90;;;;;;5011738;28;20103;-63
2022/10/03 01:48:52;;;;;;;9.68;2.22;;;10.60;99.90;;;;;;5012619;28;20517;-61
2022/10/03 01:51:30;;;;;;;11.40;2.00;;;10.70;99.90;;;;;;5011165;28;20132;-62
2022/10/03 01:54:17;;;;;;;8.32;2.08;;;10.70;99.90;;;;;;5031353;28;20037;-61
2022/10/03 01:56:54;;;;;;;6.47;2.00;;;10.70;99.90;;;;;;5010375;28;20041;-62
2022/10/03 01:59:46;;;;;;;9.82;1.90;;;10.60;99.90;;;;;;5028932;28;20040;-61
2022/10/03 02:02:41;;;;;;;7.72;1.80;;;10.60;99.90;;;;;;5026701;28;20423;-61
2022/10/03 02:05:48;;;;;;;8.93;2.20;;;10.60;99.90;;;;;;5027779;28;20041;-63
2022/10/03 02:08:53;;;;;;;5.70;1.77;;;10.60;99.90;;;;;;4998849;28;20401;-61
2022/10/03 02:11:37;;;;;;;8.05;2.30;;;10.50;99.90;;;;;;4933718;29;20044;-68
2022/10/03 02:14:21;;;;;;;9.32;1.80;;;10.50;99.90;;;;;;4946406;29;20460;-62
2022/10/03 02:16:57;;;;;;;7.57;1.70;;;10.50;99.90;;;;;;5006938;28;20406;-61
2022/10/03 02:19:33;;;;;;;5.32;1.73;;;10.50;99.90;;;;;;5010224;28;20054;-61
2022/10/03 02:21:59;;;;;;;9.57;1.73;;;10.40;99.90;;;;;;5029880;28;20041;-61
2022/10/03 02:24:35;;;;;;;6.20;1.70;;;10.40;99.90;;;;;;5031299;28;20148;-61
2022/10/03 02:27:00;;;;;;;6.07;1.58;;;10.40;99.90;;;;;;5029322;28;20037;-61
2022/10/03 02:29:55;;;;;;;7.57;1.98;;;10.40;99.90;;;;;;5029989;28;20117;-61
2022/10/03 02:32:51;;;;;;;5.00;1.40;;;10.30;99.90;;;;;;5010183;28;20512;-61
2022/10/03 02:35:38;;;;;;;7.28;1.60;;;10.30;99.90;;;;;;5027468;28;20041;-61
2022/10/03 02:38:23;;;;;;;6.30;1.70;;;10.30;99.90;;;;;;5027766;28;20172;-65
2022/10/03 02:41:17;;;;;;;4.15;1.55;;;10.20;99.90;;;;;;5006430;28;20045;-61
2022/10/03 02:44:19;;;;;;;4.75;1.40;;;10.20;99.90;;;;;;5011854;28;20068;-61
2022/10/03 02:47:07;;;;;;;7.05;1.52;;;10.10;99.90;;;;;;5004455;28;20403;-61
2022/10/03 02:49:58;;;;;;;7.05;1.70;;;10.10;99.90;;;;;;5035411;28;20445;-61
2022/10/03 02:52:45;;;;;;;5.65;1.40;;;10.20;99.90;;;;;;5028402;28;20068;-61
2022/10/03 02:55:26;;;;;;;3.33;1.55;;;10.10;99.90;;;;;;5025275;28;20409;-61
2022/10/03 02:58:10;;;;;;;6.28;1.63;;;10.10;99.90;;;;;;5011451;28;20041;-67
2022/10/03 03:00:57;;;;;;;5.28;1.40;;;10.00;99.90;;;;;;5011651;28;20534;-61
2022/10/03 03:04:05;;;;;;;4.40;1.20;;;10.00;99.90;;;;;;5010537;28;20041;-61
2022/10/03 03:06:46;;;;;;;8.93;1.75;;;10.00;99.90;;;;;;5028813;28;20132;-61
2022/10/03 03:09:30;;;;;;;7.60;1.52;;;9.90;99.90;;;;;;5009933;28;20049;-61
2022/10/03 03:12:05;;;;;;;5.38;1.40;;;9.90;99.90;;;;;;5017504;28;20120;-61
2022/10/03 03:14:56;;;;;;;3.75;1.58;;;9.90;99.90;;;;;;5007858;28;20045;-65
2022/10/03 03:17:37;;;;;;;4.00;1.60;;;9.80;99.90;;;;;;5026476;28;20049;-62
2022/10/03 03:20:14;;;;;;;3.92;1.42;;;9.80;99.90;;;;;;5029126;28;20048;-62
2022/10/03 03:22:50;;;;;;;4.30;1.50;;;9.80;99.90;;;;;;5029649;28;20083;-61
2022/10/03 03:25:42;;;;;;;4.10;1.20;;;9.80;99.90;;;;;;5027891;28;20045;-61
2022/10/03 03:28:31;;;;;;;4.70;1.55;;;9.70;99.90;;;;;;5005701;28;20041;-61
2022/10/03 03:31:11;;;;;;;5.60;1.70;;;9.70;99.90;;;;;;5032100;28;20045;-64
2022/10/03 03:34:05;;;;;;;6.47;1.58;;;9.70;99.90;;;;;;5028826;28;20073;-64
2022/10/03 03:36:48;;;;;;;6.22;1.88;;;9.70;99.90;;;;;;5029016;28;20033;-62
2022/10/03 03:39:32;;;;;;;5.28;1.70;;;9.70;99.90;;;;;;5009679;28;20079;-61
2022/10/03 03:42:22;;;;;;;5.82;1.75;;;9.60;99.90;;;;;;5013552;28;20045;-61
2022/10/03 03:45:08;;;;;;;4.90;1.70;;;9.60;99.90;;;;;;5006466;28;20073;-61
2022/10/03 03:47:53;;;;;;;4.55;1.60;;;9.60;99.90;;;;;;5028089;28;20038;-63
2022/10/03 03:50:43;;;;;;;6.53;2.00;;;9.60;99.90;;;;;;5011030;28;20502;-61
2022/10/03 03:53:27;;;;;;;5.78;1.48;;;9.60;99.90;;;;;;5012667;28;20044;-61
2022/10/03 03:56:08;;;;;;;5.88;1.70;;;9.60;99.90;;;;;;5022911;28;20034;-61
2022/10/03 03:58:50;;;;;;;8.77;1.95;;;9.70;99.90;;;;;;5028768;28;20367;-62
2022/10/03 04:01:47;;;;;;;2.85;1.40;;;9.70;99.90;;;;;;5031466;28;20046;-61
2022/10/03 04:04:16;;;;;;;4.45;1.55;;;9.70;99.90;;;;;;5033029;28;20049;-61
2022/10/03 04:06:50;;;;;;;4.32;1.40;;;9.70;99.90;;;;;;5028486;28;20055;-62
2022/10/03 04:09:41;;;;;;;4.47;2.58;;;9.60;99.90;;;;;;5027134;28;20401;-62
2022/10/03 04:12:52;;;;;;;3.17;1.50;;;9.60;99.90;;;;;;5027162;28;20048;-64
2022/10/03 04:15:30;;;;;;;1.98;1.42;;;9.70;99.90;;;;;;5032695;28;20033;-62
2022/10/03 04:21:28;;;;;;;3.33;1.45;;;9.70;99.90;;;;;;5005558;28;20112;-61
2022/10/03 04:23:56;;;;;;;2.70;1.13;;;9.70;99.90;;;;;;5032753;28;20496;-61
2022/10/03 04:27:00;;;;;;;3.88;1.50;;;9.70;99.90;;;;;;5029837;28;20048;-62
2022/10/03 04:29:29;;;;;;;4.60;1.50;;;9.70;99.90;;;;;;5000505;28;20084;-62
2022/10/03 04:32:07;;;;;;;3.40;1.35;;;9.60;99.90;;;;;;5032074;28;20060;-62
2022/10/03 04:34:45;;;;;;;3.35;1.40;;;9.60;99.90;;;;;;5033211;28;20394;-62
2022/10/03 04:37:20;;;;;;;4.07;1.80;;;9.70;99.90;;;;;;5032628;28;20049;-64
2022/10/03 04:40:20;;;;;;;2.97;1.63;;;9.70;99.90;;;;;;5030091;28;20033;-62
2022/10/03 04:43:00;;;;;;;3.17;1.40;;;9.70;99.90;;;;;;5014372;28;20049;-63
2022/10/03 04:45:44;;;;;;;2.75;1.80;;;9.70;99.90;;;;;;5015101;28;20092;-62
2022/10/03 04:48:27;;;;;;;3.20;1.52;;;9.60;99.90;;;;;;5028718;28;20042;-65
2022/10/03 04:51:15;;;;;;;3.10;1.73;;;9.60;99.90;;;;;;5031392;28;20409;-61
2022/10/03 04:53:59;;;;;;;2.75;1.73;;;9.60;99.90;;;;;;5013505;28;20049;-61
2022/10/03 04:56:33;;;;;;;2.90;1.60;;;9.60;99.90;;;;;;5033201;28;20560;-61
2022/10/03 04:59:19;;;;;;;4.03;1.63;;;9.50;99.90;;;;;;5030874;28;20037;-61
2022/10/03 05:02:02;;;;;;;2.72;2.00;;;9.50;99.90;;;;;;5026882;28;20033;-62
2022/10/03 05:05:06;;;;;;;4.50;1.90;;;9.50;99.90;;;;;;5031593;28;20497;-62
2022/10/03 05:07:42;;;;;;;3.47;1.83;;;9.50;99.90;;;;;;5013370;28;20486;-63
2022/10/03 05:10:19;;;;;;;3.13;1.63;;;9.50;99.90;;;;;;5014623;28;20176;-61
2022/10/03 05:13:04;;;;;;;3.90;1.75;;;9.40;99.90;;;;;;5010236;28;20436;-65
2022/10/03 05:15:41;;;;;;;2.35;1.52;;;9.40;99.90;;;;;;5031028;28;20075;-61
2022/10/03 05:18:23;;;;;;;3.10;1.60;;;9.40;99.90;;;;;;5031365;28;20056;-64
2022/10/03 05:21:08;;;;;;;3.88;1.95;;;9.40;99.90;;;;;;5030850;28;20045;-61
2022/10/03 05:24:02;;;;;;;3.38;1.60;;;9.40;99.90;;;;;;5030290;28;20072;-61
2022/10/03 05:26:52;;;;;;;3.28;1.90;;;9.30;99.90;;;;;;5031698;28;20456;-61
2022/10/03 05:29:40;;;;;;;4.97;1.67;;;9.30;99.90;;;;;;5026997;28;20037;-61
2022/10/03 05:32:34;;;;;;;2.58;1.75;;;9.30;99.90;;;;;;5031358;28;20041;-61
2022/10/03 05:35:33;;;;;;;3.13;1.42;;;9.30;99.90;;;;;;5027266;28;20067;-61
2022/10/03 05:38:01;;;;;;;2.67;1.45;;;9.20;99.90;;;;;;5012495;28;20502;-64
2022/10/03 05:40:34;;;;;;;3.33;1.40;;;9.10;99.90;;;;;;5030824;28;20494;-61
2022/10/03 05:43:05;;;;;;;6.20;1.52;;;9.10;99.90;;;;;;5012506;28;20062;-61
2022/10/03 05:45:54;;;;;;;2.38;1.27;;;9.10;99.90;;;;;;5029004;28;20408;-62
2022/10/03 05:48:55;;;;;;;2.88;1.50;;;9.10;99.90;;;;;;4968368;28;20453;-66
2022/10/03 05:51:45;;;;;;;4.50;1.73;;;9.00;99.90;;;;;;5013371;28;20402;-61
2022/10/03 05:54:39;;;;;;;3.42;1.80;;;9.10;99.90;;;;;;5028356;28;20434;-61
2022/10/03 05:57:42;;;;;;;7.22;1.95;;;9.10;99.90;;;;;;5031369;28;20041;-64
2022/10/03 06:00:13;;;;;;;;;;;9.10;99.90;;;;;;5026753;28;20445;-61
2022/10/03 06:03:16;;;;;;;5.47;2.20;;;9.10;99.90;;;;;;5029554;28;19924;-63
2022/10/03 06:05:42;;;;;;;;;;;9.10;99.90;;;;;;5029536;28;20409;-61
2022/10/03 06:08:40;;;;;;;2.92;1.40;;;9.10;99.90;;;;;;5013365;28;20011;-63
2022/10/03 06:11:18;;;;;;;3.97;1.40;;;9.10;99.90;;;;;;5019191;28;20408;-64
2022/10/03 06:14:34;;;;;;;4.75;1.50;;;9.10;99.90;;;;;;5012605;28;20516;-61
2022/10/03 06:17:24;;;;;;;4.93;1.70;;;9.10;99.90;;;;;;4945004;28;20509;-60
2022/10/03 06:20:14;;;;;;;6.00;1.83;;;9.20;99.90;;;;;;5007427;28;20486;-61
2022/10/03 06:23:02;;;;;;;2.17;1.50;;;9.20;99.90;;;;;;5023927;28;20073;-61
2022/10/03 06:25:45;;;;;;;3.33;1.80;;;9.20;99.90;;;;;;5030829;28;20328;-61
2022/10/03 06:28:32;;;;;;;5.00;1.52;;;9.20;99.90;;;;;;5012163;28;20432;-61
2022/10/03 06:31:19;;;;;;;4.47;1.80;;;9.20;99.90;;;;;;5029662;28;20033;-63
2022/10/03 06:33:50;;;;;;;4.55;1.70;;;9.30;99.90;;;;;;5016238;28;20581;-62
2022/10/03 06:36:42;;;;;;;5.72;2.10;;;9.30;99.90;;;;;;5028483;28;20039;-63
2022/10/03 06:39:32;;;;;;;3.28;1.45;;;9.30;99.90;;;;;;5024661;28;20041;-61
2022/10/03 06:42:31;;;;;;;2.55;1.45;;;9.30;99.90;;;;;;5032554;28;20041;-61
2022/10/03 06:45:27;;;;;;;4.18;1.70;;;9.40;99.90;;;;;;5006852;28;20045;-64
2022/10/03 06:48:11;;;;;;;7.38;1.88;;;9.40;99.90;;;;;;5005310;28;20064;-61
2022/10/03 06:51:04;;;;;;;3.40;1.75;;;9.40;99.90;;;;;;5007980;28;20121;-61
2022/10/03 06:53:59;;;;;;;5.47;1.83;;;9.50;99.90;;;;;;5010139;28;20084;-60
2022/10/03 06:56:30;;;;;;;5.05;2.15;;;9.50;99.90;;;;;;5009509;28;20060;-62
2022/10/03 06:59:31;;;;;;;6.82;2.20;;;9.50;99.90;;;;;;5009224;28;20413;-62
2022/10/03 07:02:21;;;;;;;5.78;2.08;;;9.50;99.90;;;;;;5025405;28;20533;-61
2022/10/03 07:05:15;;;;;;;5.70;2.00;;;9.60;99.90;;;;;;5006291;28;20064;-61
2022/10/03 07:08:01;;;;;;;6.85;2.10;;;9.60;99.90;;;;;;5027363;28;20444;-61
2022/10/03 07:10:37;;;;;;;4.05;2.10;;;9.70;99.90;;;;;;5011901;28;20498;-63
2022/10/03 07:13:38;;;;;;;8.15;2.42;;;9.70;99.90;;;;;;5025798;28;20045;-64
2022/10/03 07:16:44;;;;;;;9.23;2.40;;;9.70;99.90;;;;;;4998839;28;20056;-63
2022/10/03 07:19:36;;;;;;;5.28;2.60;;;9.80;99.90;;;;;;4959989;28;20047;-61
2022/10/03 07:22:20;;;;;;;6.55;2.53;;;9.80;99.90;;;;;;5027562;28;20053;-65
2022/10/03 07:25:18;;;;;;;9.07;2.80;;;9.90;99.90;;;;;;5028488;28;20496;-64
2022/10/03 07:28:08;;;;;;;8.95;2.63;;;9.90;99.90;;;;;;4959040;28;20098;-60
2022/10/03 07:30:58;;;;;;;9.68;2.80;;;10.00;99.90;;;;;;5029309;28;20037;-61
2022/10/03 07:33:42;;;;;;;7.35;2.83;;;10.10;99.90;;;;;;5015380;28;20371;-61
2022/10/03 07:39:58;;;;;;;13.55;3.08;;;10.20;99.90;;;;;;5028170;28;20046;-64
2022/10/03 07:42:26;;;;;;;9.25;3.10;;;10.30;99.90;;;;;;5027635;28;20033;-61
2022/10/03 07:45:22;;;;;;;9.82;2.85;;;10.40;99.90;;;;;;5012687;28;20041;-64
2022/10/03 07:48:06;;;;;;;12.80;3.30;;;10.50;99.90;;;;;;5026721;28;20116;-61
2022/10/03 07:50:53;;;;;;;9.52;2.97;;;10.60;99.90;;;;;;5009328;28;20408;-61
2022/10/03 07:53:54;;;;;;;7.65;2.78;;;10.70;99.90;;;;;;5029936;28;20038;-61
2022/10/03 07:56:41;;;;;;;13.85;3.00;;;10.80;99.90;;;;;;5011483;28;20044;-61
2022/10/03 07:59:34;;;;;;;8.98;2.65;;;10.90;99.90;;;;;;5007360;28;20045;-62
2022/10/03 08:02:32;;;;;;;12.00;3.40;;;10.90;99.90;;;;;;5027891;28;20040;-61
2022/10/03 08:05:06;;;;;;;12.63;3.03;;;11.00;99.90;;;;;;5025716;28;20049;-61
2022/10/03 08:07:56;;;;;;;10.73;3.10;;;11.10;99.90;;;;;;5010680;28;20041;-61
2022/10/03 08:10:45;;;;;;;14.60;3.10;;;11.20;99.90;;;;;;5009915;28;20038;-66
2022/10/03 08:13:25;;;;;;;14.52;3.20;;;11.30;99.90;;;;;;4983815;28;20063;-61
2022/10/03 08:16:21;;;;;;;7.15;2.60;;;11.40;99.90;;;;;;5031310;28;20037;-61
2022/10/03 08:18:55;;;;;;;9.38;2.97;;;11.50;99.90;;;;;;4996524;28;20569;-61
2022/10/03 08:21:50;;;;;;;11.32;2.88;;;11.60;99.90;;;;;;5025253;28;20405;-64
2022/10/03 08:24:44;;;;;;;13.35;3.35;;;11.70;99.90;;;;;;5028154;28;20041;-63
2022/10/03 08:27:46;;;;;;;9.38;2.72;;;11.70;99.90;;;;;;5027441;28;20070;-62
2022/10/03 08:30:40;;;;;;;11.13;3.25;;;11.90;99.90;;;;;;5020693;28;20049;-64
2022/10/03 08:33:30;;;;;;;11.20;2.83;;;11.90;99.90;;;;;;5027778;28;20412;-62
2022/10/03 08:36:31;;;;;;;10.30;2.47;;;12.00;99.90;;;;;;5031165;28;20064;-65
2022/10/03 08:39:10;;;;;;;9.05;2.72;;;12.10;99.90;;;;;;4971427;28;20053;-62
2022/10/03 08:41:54;;;;;;;8.95;2.75;;;12.20;99.90;;;;;;5028138;28;20045;-65
2022/10/03 08:44:46;;;;;;;15.82;3.55;;;12.30;99.90;;;;;;5013633;28;20132;-65
2022/10/03 08:47:20;;;;;;;9.90;3.20;;;12.40;99.90;;;;;;4972293;28;20658;-61
2022/10/03 08:50:11;;;;;;;13.85;3.10;;;12.40;99.90;;;;;;5012326;28;20046;-63
2022/10/03 08:52:49;;;;;;;7.30;2.40;;;12.50;99.90;;;;;;5010004;28;20419;-62
2022/10/03 08:55:41;;;;;;;12.20;2.72;;;12.60;99.90;;;;;;5027376;28;20041;-63
2022/10/03 08:58:22;;;;;;;14.77;2.97;;;12.60;99.90;;;;;;5028405;28;20050;-62
2022/10/03 09:01:26;;;;;;;12.75;2.70;;;12.70;99.90;;;;;;5030883;28;20052;-65
2022/10/03 09:04:10;;;;;;;11.93;2.97;;;12.70;99.90;;;;;;5015381;28;20046;-62
2022/10/03 09:07:06;;;;;;;14.05;2.20;;;12.80;99.90;;;;;;5035827;28;20041;-62
2022/10/03 09:09:50;;;;;;;11.93;2.30;;;12.90;99.90;;;;;;5031307;28;20083;-61
2022/10/03 09:12:41;;;;;;;15.80;2.42;;;12.90;99.90;;;;;;5016732;28;20410;-62
2022/10/03 09:15:25;;;;;;;12.07;2.30;;;13.00;99.90;;;;;;5033013;28;20054;-64
2022/10/03 09:17:54;;;;;;;10.18;2.15;;;13.10;99.90;;;;;;5019154;28;20039;-64
2022/10/03 09:20:42;;;;;;;19.42;3.15;;;13.20;99.90;;;;;;5017923;28;20045;-61
2022/10/03 09:23:46;;;;;;;12.48;2.00;;;13.30;99.90;;;;;;5020541;28;20053;-62
2022/10/03 09:26:39;;;;;;;9.68;1.50;;;13.30;99.90;;;;;;5021548;28;20052;-61
2022/10/03 09:29:17;;;;;;;9.25;1.92;;;13.40;99.90;;;;;;5051509;28;20079;-64
2022/10/03 09:31:54;;;;;;;8.25;1.55;;;13.50;99.90;;;;;;5055024;28;20029;-65
2022/10/03 09:34:48;;;;;;;12.48;1.92;;;13.60;99.90;;;;;;5046407;28;20044;-65
2022/10/03 09:37:34;;;;;;;10.27;2.33;;;13.60;99.90;;;;;;5054720;28;20033;-62
2022/10/03 09:40:02;;;;;;;5.93;1.42;;;13.70;99.90;;;;;;5051016;28;20037;-64
2022/10/03 09:42:53;;;;;;;12.30;1.95;;;13.80;99.90;;;;;;5050469;28;20045;-65
2022/10/03 09:45:44;;;;;;;8.55;1.42;;;13.90;99.90;;;;;;5050379;28;20064;-64
2022/10/03 09:48:33;;;;;;;6.63;1.35;;;14.00;99.90;;;;;;5053261;28;20045;-63
2022/10/03 09:51:18;;;;;;;10.77;1.98;;;14.10;99.90;;;;;;5045389;28;20044;-64
2022/10/03 09:54:17;;;;;;;11.60;1.52;;;14.20;99.90;;;;;;5050572;28;20049;-65
2022/10/03 09:57:14;;;;;;;8.65;1.85;;;14.30;99.90;;;;;;5053150;28;20374;-65
2022/10/03 10:00:02;;;;;;;8.68;1.65;;;14.40;99.90;;;;;;5042068;28;20040;-61
2022/10/03 10:02:50;;;;;;;10.20;1.75;;;14.60;99.90;;;;;;5052044;28;20051;-63
2022/10/03 10:05:36;;;;;;;11.15;1.80;;;14.70;99.90;;;;;;5052680;28;20041;-64
2022/10/03 10:08:34;;;;;;;8.25;1.63;;;14.80;99.90;;;;;;5048436;28;20419;-65
2022/10/03 10:11:20;;;;;;;7.03;1.50;;;14.90;99.90;;;;;;5049003;28;20489;-65
2022/10/03 10:13:54;;;;;;;6.40;1.65;;;15.10;99.90;;;;;;5046316;28;20386;-64
2022/10/03 10:16:50;;;;;;;8.50;1.70;;;15.20;99.90;;;;;;5052858;28;20497;-65
2022/10/03 10:19:44;;;;;;;6.38;1.60;;;15.20;99.90;;;;;;5048703;28;20055;-64
2022/10/03 10:22:20;;;;;;;7.43;1.52;;;15.20;99.90;;;;;;5049618;28;20049;-64
2022/10/03 10:24:49;;;;;;;7.43;1.60;;;15.30;99.90;;;;;;5044819;28;20048;-64
2022/10/03 10:28:01;;;;;;;5.70;1.65;;;15.30;99.90;;;;;;5049927;28;20049;-65
2022/10/03 10:30:55;;;;;;;6.88;1.67;;;15.40;99.90;;;;;;5047779;28;20461;-64
2022/10/03 10:33:24;;;;;;;5.63;1.40;;;15.50;99.90;;;;;;5049847;28;20501;-63
2022/10/03 10:36:14;;;;;;;8.65;1.65;;;15.70;99.90;;;;;;5049102;28;20119;-64
2022/10/03 10:38:51;;;;;;;8.18;1.40;;;15.90;99.90;;;;;;5049412;28;20493;-64
2022/10/03 10:41:29;;;;;;;10.40;2.20;;;16.00;99.90;;;;;;5047871;28;20041;-65
2022/10/03 10:44:12;;;;;;;10.43;1.75;;;16.10;99.90;;;;;;5051580;28;20501;-64
2022/10/03 10:47:08;;;;;;;10.05;1.50;;;16.20;99.90;;;;;;5046426;28;20055;-65
2022/10/03 10:49:37;;;;;;;9.73;1.88;;;16.40;99.90;;;;;;5049208;28;20041;-64
2022/10/03 10:52:12;;;;;;;6.88;1.58;;;16.50;99.90;;;;;;5048562;28;20102;-64
2022/10/03 10:54:50;;;;;;;8.30;1.58;;;16.40;99.90;;;;;;5048346;28;20127;-65
2022/10/03 10:57:22;;;;;;;7.75;1.50;;;16.40;99.90;;;;;;5048041;28;20068;-64
2022/10/03 11:00:20;;;;;;;7.70;1.67;;;16.40;99.90;;;;;;5049219;28;20033;-64
2022/10/03 11:02:54;;;;;;;9.23;1.80;;;16.50;99.90;;;;;;5050045;28;20211;-65
2022/10/03 11:05:45;;;;;;;7.20;1.40;;;16.60;99.90;;;;;;5047687;28;20033;-63
2022/10/03 11:08:33;;;;;;;7.03;1.50;;;16.70;99.90;;;;;;5047615;28;20037;-64
2022/10/03 11:11:29;;;;;;;7.28;1.60;;;16.80;99.90;;;;;;5047108;28;20047;-65
2022/10/03 11:14:13;;;;;;;4.97;1.23;;;16.90;99.90;;;;;;5048747;28;20122;-64
2022/10/03 11:16:39;;;;;;;6.03;1.35;;;16.90;99.90;;;;;;5049171;28;20044;-64
2022/10/03 11:19:32;;;;;;;5.50;1.30;;;17.00;99.90;;;;;;5047824;28;20037;-64
2022/10/03 11:22:27;;;;;;;6.93;1.50;;;17.00;99.90;;;;;;5050209;28;20452;-65
2022/10/03 11:25:13;;;;;;;6.28;1.60;;;17.00;99.90;;;;;;5017262;28;20394;-63
2022/10/03 11:28:00;;;;;;;6.03;1.80;;;16.90;99.90;;;;;;5027585;28;20040;-64
2022/10/03 11:31:03;;;;;;;8.27;1.67;;;16.80;99.90;;;;;;5027887;28;20511;-65
2022/10/03 11:33:56;;;;;;;8.15;1.40;;;16.70;99.90;;;;;;5017921;28;20049;-65
2022/10/03 11:36:36;;;;;;;;;;;16.70;99.90;;;;;;5012508;28;20033;-65
2022/10/03 11:39:30;;;;;;;6.55;1.75;;;16.70;99.90;;;;;;5017760;28;19916;-65
2022/10/03 11:42:31;;;;;;;7.18;2.03;;;16.70;99.90;;;;;;5015231;28;20073;-65
2022/10/03 11:45:03;;;;;;;8.35;1.88;;;16.90;99.90;;;;;;5003222;28;20064;-62
2022/10/03 11:47:42;;;;;;;7.07;1.25;;;16.90;99.90;;;;;;5010580;28;20050;-65
2022/10/03 11:50:32;;;;;;;5.70;1.65;;;17.00;99.90;;;;;;5010649;28;20490;-65
2022/10/03 11:53:24;;;;;;;8.43;1.58;;;17.10;99.90;;;;;;5009227;28;20049;-62
2022/10/03 11:56:08;;;;;;;5.78;1.27;;;17.30;99.90;;;;;;5026996;28;20115;-65
2022/10/03 11:58:46;;;;;;;4.70;1.45;;;17.40;99.90;;;;;;5008627;28;20413;-65
2022/10/03 12:01:25;;;;;;;5.03;1.38;;;17.50;99.90;;;;;;5010833;28;20111;-61
2022/10/03 12:04:27;;;;;;;7.40;1.45;;;17.40;99.90;;;;;;5012356;28;20052;-65
2022/10/03 12:10:28;;;;;;;6.65;1.50;;;17.30;99.90;;;;;;5029398;28;20562;-62
2022/10/03 12:12:55;;;;;;;5.05;1.30;;;17.20;99.90;;;;;;5026698;28;20045;-65
2022/10/03 12:15:44;;;;;;;6.95;1.40;;;17.10;99.90;;;;;;5014689;28;20090;-65
2022/10/03 12:18:43;;;;;;;6.60;1.30;;;17.10;99.90;;;;;;5033559;28;20505;-63
2022/10/03 12:21:15;;;;;;;5.95;1.35;;;17.10;99.90;;;;;;5029935;28;20444;-64
2022/10/03 12:23:52;;;;;;;7.10;1.50;;;17.10;99.90;;;;;;5016247;28;20088;-64
2022/10/03 12:26:30;;;;;;;7.88;1.77;;;17.20;99.90;;;;;;5028832;28;20056;-61
2022/10/03 12:28:57;;;;;;;3.55;0.93;;;17.30;99.90;;;;;;5049213;28;20063;-65
2022/10/03 12:31:37;;;;;;;5.00;1.13;;;17.40;99.90;;;;;;5047987;28;20425;-65
2022/10/03 12:34:33;;;;;;;7.15;1.40;;;17.50;99.90;;;;;;5053301;28;20037;-64
2022/10/03 12:37:23;;;;;;;5.15;1.20;;;17.50;99.90;;;;;;5052177;28;20056;-65
2022/10/03 12:40:00;;;;;;;5.07;1.40;;;17.50;99.90;;;;;;5047667;28;20040;-65
2022/10/03 12:42:53;;;;;;;4.63;1.15;;;17.40;99.90;;;;;;5051852;28;20045;-65
2022/10/03 12:45:48;;;;;;;3.15;1.00;;;17.30;99.90;;;;;;5051567;28;20041;-65
2022/10/03 12:48:41;;;;;;;5.25;1.05;;;17.30;99.90;;;;;;5044412;28;20082;-65
2022/10/03 12:51:28;;;;;;;3.83;1.30;;;17.20;99.90;;;;;;5056518;28;20401;-64
2022/10/03 12:54:22;;;;;;;4.65;1.23;;;17.10;99.90;;;;;;4996304;28;20081;-66
2022/10/03 12:57:09;;;;;;;6.60;1.42;;;17.00;99.90;;;;;;5051525;28;20055;-65
2022/10/03 12:59:41;;;;;;;6.53;1.40;;;17.00;99.90;;;;;;5037642;28;20048;-62
2022/10/03 13:03:05;;;;;;;8.07;1.85;;;17.00;99.90;;;;;;5051031;28;20049;-65
2022/10/03 13:05:57;;;;;;;6.10;1.30;;;16.90;99.90;;;;;;4953306;28;20047;-65
2022/10/03 13:08:47;;;;;;;6.03;1.50;;;16.90;99.90;;;;;;4956389;28;20057;-65
2022/10/03 13:11:24;;;;;;;6.07;1.30;;;16.90;99.90;;;;;;5042852;28;20051;-65
2022/10/03 13:13:53;;;;;;;5.32;1.50;;;16.90;99.90;;;;;;5059877;28;20060;-65
2022/10/03 13:16:42;;;;;;;5.25;1.17;;;16.90;99.90;;;;;;5053175;28;20119;-65
2022/10/03 13:19:17;;;;;;;4.93;1.38;;;16.80;99.90;;;;;;5017723;28;20135;-61
2022/10/03 13:21:43;;;;;;;8.55;1.50;;;16.80;99.90;;;;;;5047135;28;20048;-65
2022/10/03 13:24:31;;;;;;;5.25;1.20;;;16.90;99.90;;;;;;5052070;28;20084;-65
2022/10/03 13:27:14;;;;;;;6.90;1.33;;;16.90;99.90;;;;;;5035227;28;20037;-64
2022/10/03 13:30:08;;;;;;;6.82;1.48;;;17.00;99.90;;;;;;5032331;28;20044;-64
2022/10/03 13:32:38;;;;;;;7.15;1.40;;;17.10;99.90;;;;;;5010288;28;20057;-62
2022/10/03 13:38:08;;;;;;;7.90;1.40;;;17.30;99.90;;;;;;5010789;28;20057;-64
2022/10/03 13:40:37;;;;;;;8.30;1.40;;;17.40;99.90;;;;;;5013616;28;20398;-64
2022/10/03 13:43:12;;;;;;;5.07;1.45;;;17.40;99.90;;;;;;5013231;28;20041;-63
2022/10/03 13:45:43;;;;;;;4.88;1.30;;;17.50;99.90;;;;;;4995000;28;22013;-65
2022/10/03 13:48:20;;;;;;;3.97;1.30;;;17.60;99.90;;;;;;5031477;28;20437;-63
2022/10/03 13:51:16;;;;;;;7.97;1.60;;;17.60;99.90;;;;;;5025039;28;20029;-65
2022/10/03 13:53:50;;;;;;;5.57;1.23;;;17.60;99.90;;;;;;5031742;28;20056;-64
2022/10/03 13:56:21;;;;;;;4.97;1.40;;;17.60;99.90;;;;;;5032543;28;20052;-65
2022/10/03 13:59:04;;;;;;;8.13;1.38;;;17.60;99.90;;;;;;5014444;28;20044;-62
2022/10/03 14:01:42;;;;;;;5.60;1.70;;;17.60;99.90;;;;;;5032620;28;20489;-64
2022/10/03 14:04:08;;;;;;;4.65;1.40;;;17.60;99.90;;;;;;5028521;28;20401;-65
2022/10/03 14:06:57;;;;;;;6.75;1.23;;;17.60;99.90;;;;;;5013856;28;20044;-64
2022/10/03 14:09:50;;;;;;;7.22;1.45;;;17.60;99.90;;;;;;5033765;28;20171;-63
2022/10/03 14:12:43;;;;;;;5.43;1.40;;;17.60;99.90;;;;;;5013245;28;20497;-65
2022/10/03 14:15:47;;;;;;;5.65;1.40;;;17.50;99.90;;;;;;5023002;28;20098;-65
2022/10/03 14:18:38;;;;;;;6.13;1.45;;;17.40;99.90;;;;;;5013883;28;20512;-65
2022/10/03 14:21:22;;;;;;;5.10;1.33;;;17.50;99.90;;;;;;5013291;28;20041;-65
2022/10/03 14:24:05;;;;;;;6.22;1.50;;;17.40;99.90;;;;;;5026302;28;20045;-65
2022/10/03 14:26:30;;;;;;;6.25;1.63;;;17.40;99.90;;;;;;5030017;28;20179;-64
2022/10/03 14:29:09;;;;;;;7.45;1.30;;;17.30;99.90;;;;;;5049112;28;20127;-64
2022/10/03 14:32:00;;;;;;;6.40;1.40;;;17.30;99.90;;;;;;5049627;28;20090;-64
2022/10/03 14:35:00;;;;;;;4.00;1.30;;;17.30;99.90;;;;;;5045941;28;20132;-61
2022/10/03 14:37:52;;;;;;;5.18;1.48;;;17.30;99.90;;;;;;5056375;28;20033;-61